sensor_id;sensor_type;location;lat;lon;timestamp;temperature;humidity
15707;DHT22;7953;54.302;10.128;2022-07-03T00:01:54;17.20;99.90
15707;DHT22;7953;54.302;10.128;2022-07-03T00:04:21;17.20;99.90
15707;DHT22;7953;54.302;10.128;2022-07-03T00:06:48;17.20;99.90
15707;DHT22;7953;54.302;10.128;2022-07-03T00:09:15;17.20;99.90
15707;DHT22;7953;54.302;10.128;2022-07-03T00:11:43;17.20;99.90
15707;DHT22;7953;54.302;10.128;2022-07-03T00:14:09;17.30;99.90
15707;DHT22;7953;54.302;10.128;2022-07-03T00:16:36;17.30;99.90
15707;DHT22;7953;54.302;10.128;2022-07-03T00:19:05;17.30;99.90
15707;DHT22;7953;54.302;10.128;2022-07-03T00:21:35;17.30;99.90
15707;DHT22;7953;54.302;10.128;2022-07-03T00:24:08;17.30;99.90
15707;DHT22;7953;54.302;10.128;2022-07-03T00:26:37;17.30;99.90
15707;DHT22;7953;54.302;10.128;2022-07-03T00:29:05;17.30;99.90
15707;DHT22;7953;54.302;10.128;2022-07-03T00:31:34;17.30;99.90
15707;DHT22;7953;54.302;10.128;2022-07-03T00:34:02;17.30;99.90
15707;DHT22;7953;54.302;10.128;2022-07-03T00:36:34;17.30;99.90
15707;DHT22;7953;54.302;10.128;2022-07-03T00:39:02;17.30;99.90
15707;DHT22;7953;54.302;10.128;2022-07-03T00:41:30;17.30;99.90
15707;DHT22;7953;54.302;10.128;2022-07-03T00:43:58;17.30;99.90
15707;DHT22;7953;54.302;10.128;2022-07-03T00:46:26;17.30;99.90
15707;DHT22;7953;54.302;10.128;2022-07-03T00:48:55;17.30;99.90
15707;DHT22;7953;54.302;10.128;2022-07-03T00:51:24;17.30;99.90
15707;DHT22;7953;54.302;10.128;2022-07-03T00:53:55;17.30;99.90
15707;DHT22;7953;54.302;10.128;2022-07-03T00:56:24;17.30;99.90
15707;DHT22;7953;54.302;10.128;2022-07-03T00:58:57;17.30;99.90
15707;DHT22;7953;54.302;10.128;2022-07-03T01:01:26;17.30;99.90
15707;DHT22;7953;54.302;10.128;2022-07-03T01:04:08;17.20;99.90
15707;DHT22;7953;54.302;10.128;2022-07-03T01:06:44;17.20;99.90
15707;DHT22;7953;54.302;10.128;2022-07-03T01:09:15;17.20;99.90
15707;DHT22;7953;54.302;10.128;2022-07-03T01:11:50;17.20;99.90
15707;DHT22;7953;54.302;10.128;2022-07-03T01:14:28;17.20;99.90
15707;DHT22;7953;54.302;10.128;2022-07-03T01:17:05;17.20;99.90
15707;DHT22;7953;54.302;10.128;2022-07-03T01:19:37;17.20;99.90
15707;DHT22;7953;54.302;10.128;2022-07-03T01:22:29;17.20;99.90
15707;DHT22;7953;54.302;10.128;2022-07-03T01:25:22;17.20;99.90
15707;DHT22;7953;54.302;10.128;2022-07-03T01:28:03;17.20;99.90
15707;DHT22;7953;54.302;10.128;2022-07-03T01:30:34;17.20;99.90
15707;DHT22;7953;54.302;10.128;2022-07-03T01:33:04;17.20;99.90
15707;DHT22;7953;54.302;10.128;2022-07-03T01:35:33;17.20;99.90
15707;DHT22;7953;54.302;10.128;2022-07-03T01:38:03;17.20;99.90
15707;DHT22;7953;54.302;10.128;2022-07-03T01:40:33;17.20;99.90
15707;DHT22;7953;54.302;10.128;2022-07-03T01:43:05;17.20;99.90
15707;DHT22;7953;54.302;10.128;2022-07-03T01:45:35;17.20;99.90
15707;DHT22;7953;54.302;10.128;2022-07-03T01:48:05;17.20;99.90
15707;DHT22;7953;54.302;10.128;2022-07-03T01:50:33;17.20;99.90
15707;DHT22;7953;54.302;10.128;2022-07-03T01:53:01;17.30;99.90
15707;DHT22;7953;54.302;10.128;2022-07-03T01:55:30;17.30;99.90
15707;DHT22;7953;54.302;10.128;2022-07-03T01:57:58;17.30;99.90
15707;DHT22;7953;54.302;10.128;2022-07-03T02:00:28;17.30;99.90
15707;DHT22;7953;54.302;10.128;2022-07-03T02:03:00;17.30;99.90
15707;DHT22;7953;54.302;10.128;2022-07-03T02:05:33;17.30;99.90
15707;DHT22;7953;54.302;10.128;2022-07-03T02:08:08;17.30;99.90
15707;DHT22;7953;54.302;10.128;2022-07-03T02:10:39;17.30;99.90
15707;DHT22;7953;54.302;10.128;2022-07-03T02:13:16;17.30;99.90
15707;DHT22;7953;54.302;10.128;2022-07-03T02:15:46;17.40;99.90
15707;DHT22;7953;54.302;10.128;2022-07-03T02:18:25;17.40;99.90
15707;DHT22;7953;54.302;10.128;2022-07-03T02:21:02;17.40;99.90
15707;DHT22;7953;54.302;10.128;2022-07-03T02:23:31;17.40;99.90
15707;DHT22;7953;54.302;10.128;2022-07-03T02:26:03;17.40;99.90
15707;DHT22;7953;54.302;10.128;2022-07-03T02:28:40;17.40;99.90
15707;DHT22;7953;54.302;10.128;2022-07-03T02:31:14;17.40;99.90
15707;DHT22;7953;54.302;10.128;2022-07-03T02:33:43;17.40;99.90
15707;DHT22;7953;54.302;10.128;2022-07-03T02:36:11;17.40;99.90
15707;DHT22;7953;54.302;10.128;2022-07-03T02:38:43;17.40;99.90
15707;DHT22;7953;54.302;10.128;2022-07-03T02:41:15;17.40;99.90
15707;DHT22;7953;54.302;10.128;2022-07-03T02:43:49;17.30;99.90
15707;DHT22;7953;54.302;10.128;2022-07-03T02:46:23;17.30;99.90
15707;DHT22;7953;54.302;10.128;2022-07-03T02:49:38;17.30;99.90
15707;DHT22;7953;54.302;10.128;2022-07-03T02:52:14;17.30;99.90
15707;DHT22;7953;54.302;10.128;2022-07-03T02:54:44;17.40;99.90
15707;DHT22;7953;54.302;10.128;2022-07-03T02:57:13;17.40;99.90
15707;DHT22;7953;54.302;10.128;2022-07-03T02:59:52;17.40;99.90
15707;DHT22;7953;54.302;10.128;2022-07-03T03:02:29;17.40;99.90
15707;DHT22;7953;54.302;10.128;2022-07-03T03:05:06;17.40;99.90
15707;DHT22;7953;54.302;10.128;2022-07-03T03:07:46;17.40;99.90
15707;DHT22;7953;54.302;10.128;2022-07-03T03:10:19;17.40;99.90
15707;DHT22;7953;54.302;10.128;2022-07-03T03:12:47;17.40;99.90
15707;DHT22;7953;54.302;10.128;2022-07-03T03:15:14;17.40;99.90
15707;DHT22;7953;54.302;10.128;2022-07-03T03:17:50;17.40;99.90
15707;DHT22;7953;54.302;10.128;2022-07-03T03:20:17;17.40;99.90
15707;DHT22;7953;54.302;10.128;2022-07-03T03:22:59;17.40;99.90
15707;DHT22;7953;54.302;10.128;2022-07-03T03:25:26;17.30;99.90
15707;DHT22;7953;54.302;10.128;2022-07-03T03:27:53;17.30;99.90
15707;DHT22;7953;54.302;10.128;2022-07-03T03:30:21;17.30;99.90
15707;DHT22;7953;54.302;10.128;2022-07-03T03:32:51;17.30;99.90
15707;DHT22;7953;54.302;10.128;2022-07-03T03:35:18;17.30;99.90
15707;DHT22;7953;54.302;10.128;2022-07-03T03:37:46;17.30;99.90
15707;DHT22;7953;54.302;10.128;2022-07-03T03:40:15;17.30;99.90
15707;DHT22;7953;54.302;10.128;2022-07-03T03:42:42;17.30;99.90
15707;DHT22;7953;54.302;10.128;2022-07-03T03:45:10;17.40;99.90
15707;DHT22;7953;54.302;10.128;2022-07-03T03:47:37;17.40;99.90
15707;DHT22;7953;54.302;10.128;2022-07-03T03:50:06;17.40;99.90
15707;DHT22;7953;54.302;10.128;2022-07-03T03:52:33;17.40;99.90
15707;DHT22;7953;54.302;10.128;2022-07-03T03:55:00;17.40;99.90
15707;DHT22;7953;54.302;10.128;2022-07-03T03:57:27;17.40;99.90
15707;DHT22;7953;54.302;10.128;2022-07-03T03:59:55;17.40;99.90
15707;DHT22;7953;54.302;10.128;2022-07-03T04:02:22;17.40;99.90
15707;DHT22;7953;54.302;10.128;2022-07-03T04:04:49;17.40;99.90
15707;DHT22;7953;54.302;10.128;2022-07-03T04:07:17;17.40;99.90
15707;DHT22;7953;54.302;10.128;2022-07-03T04:09:44;17.40;99.90
15707;DHT22;7953;54.302;10.128;2022-07-03T04:12:11;17.40;99.90
15707;DHT22;7953;54.302;10.128;2022-07-03T04:14:38;17.40;99.90
15707;DHT22;7953;54.302;10.128;2022-07-03T04:17:05;17.50;99.90
15707;DHT22;7953;54.302;10.128;2022-07-03T04:19:32;17.50;99.90
15707;DHT22;7953;54.302;10.128;2022-07-03T04:21:59;17.50;99.90
15707;DHT22;7953;54.302;10.128;2022-07-03T04:24:27;17.60;99.90
15707;DHT22;7953;54.302;10.128;2022-07-03T04:26:54;17.70;99.90
15707;DHT22;7953;54.302;10.128;2022-07-03T04:29:21;17.80;99.90
15707;DHT22;7953;54.302;10.128;2022-07-03T04:31:48;17.80;99.90
15707;DHT22;7953;54.302;10.128;2022-07-03T04:34:15;17.80;99.90
15707;DHT22;7953;54.302;10.128;2022-07-03T04:36:42;17.80;99.90
15707;DHT22;7953;54.302;10.128;2022-07-03T04:39:09;17.90;99.90
15707;DHT22;7953;54.302;10.128;2022-07-03T04:41:37;17.90;99.90
15707;DHT22;7953;54.302;10.128;2022-07-03T04:44:04;17.90;99.90
15707;DHT22;7953;54.302;10.128;2022-07-03T04:46:31;17.90;99.90
15707;DHT22;7953;54.302;10.128;2022-07-03T04:48:58;17.90;99.90
15707;DHT22;7953;54.302;10.128;2022-07-03T04:51:25;17.90;99.90
15707;DHT22;7953;54.302;10.128;2022-07-03T04:53:52;17.90;99.90
15707;DHT22;7953;54.302;10.128;2022-07-03T04:56:19;17.90;99.90
15707;DHT22;7953;54.302;10.128;2022-07-03T04:58:47;17.90;99.90
15707;DHT22;7953;54.302;10.128;2022-07-03T05:01:14;17.90;99.90
15707;DHT22;7953;54.302;10.128;2022-07-03T05:03:41;17.90;99.90
15707;DHT22;7953;54.302;10.128;2022-07-03T05:06:08;18.00;99.90
15707;DHT22;7953;54.302;10.128;2022-07-03T05:08:35;18.00;99.90
15707;DHT22;7953;54.302;10.128;2022-07-03T05:11:02;18.00;99.90
15707;DHT22;7953;54.302;10.128;2022-07-03T05:13:29;18.00;99.90
15707;DHT22;7953;54.302;10.128;2022-07-03T05:15:58;18.00;99.90
15707;DHT22;7953;54.302;10.128;2022-07-03T05:18:25;18.00;99.90
15707;DHT22;7953;54.302;10.128;2022-07-03T05:20:51;18.00;99.90
15707;DHT22;7953;54.302;10.128;2022-07-03T05:23:18;17.90;99.90
15707;DHT22;7953;54.302;10.128;2022-07-03T05:25:45;17.90;99.90
15707;DHT22;7953;54.302;10.128;2022-07-03T05:28:12;17.90;99.90
15707;DHT22;7953;54.302;10.128;2022-07-03T05:30:39;17.90;99.90
15707;DHT22;7953;54.302;10.128;2022-07-03T05:33:07;17.90;99.90
15707;DHT22;7953;54.302;10.128;2022-07-03T05:35:34;17.90;99.90
15707;DHT22;7953;54.302;10.128;2022-07-03T05:38:01;17.90;99.90
15707;DHT22;7953;54.302;10.128;2022-07-03T05:40:28;18.00;99.90
15707;DHT22;7953;54.302;10.128;2022-07-03T05:42:54;18.00;99.90
15707;DHT22;7953;54.302;10.128;2022-07-03T05:45:21;18.10;99.90
15707;DHT22;7953;54.302;10.128;2022-07-03T05:47:48;18.20;99.90
15707;DHT22;7953;54.302;10.128;2022-07-03T05:50:16;18.20;99.90
15707;DHT22;7953;54.302;10.128;2022-07-03T05:52:43;18.30;99.90
15707;DHT22;7953;54.302;10.128;2022-07-03T05:55:10;18.40;99.90
15707;DHT22;7953;54.302;10.128;2022-07-03T05:57:37;18.50;99.90
15707;DHT22;7953;54.302;10.128;2022-07-03T06:00:05;18.70;99.90
15707;DHT22;7953;54.302;10.128;2022-07-03T06:02:32;18.90;99.90
15707;DHT22;7953;54.302;10.128;2022-07-03T06:04:59;19.00;99.90
15707;DHT22;7953;54.302;10.128;2022-07-03T06:07:27;19.10;99.90
15707;DHT22;7953;54.302;10.128;2022-07-03T06:09:54;19.10;99.90
15707;DHT22;7953;54.302;10.128;2022-07-03T06:12:21;19.20;99.90
15707;DHT22;7953;54.302;10.128;2022-07-03T06:14:48;19.20;99.90
15707;DHT22;7953;54.302;10.128;2022-07-03T06:17:15;19.20;99.90
15707;DHT22;7953;54.302;10.128;2022-07-03T06:19:42;19.20;99.90
15707;DHT22;7953;54.302;10.128;2022-07-03T06:22:09;19.20;99.90
15707;DHT22;7953;54.302;10.128;2022-07-03T06:24:37;19.30;99.90
15707;DHT22;7953;54.302;10.128;2022-07-03T06:27:04;19.30;99.90
15707;DHT22;7953;54.302;10.128;2022-07-03T06:29:31;19.40;99.90
15707;DHT22;7953;54.302;10.128;2022-07-03T06:31:58;19.60;99.90
15707;DHT22;7953;54.302;10.128;2022-07-03T06:34:25;19.70;99.90
15707;DHT22;7953;54.302;10.128;2022-07-03T06:36:52;19.80;99.90
15707;DHT22;7953;54.302;10.128;2022-07-03T06:39:19;19.90;99.90
15707;DHT22;7953;54.302;10.128;2022-07-03T06:41:47;20.00;99.90
15707;DHT22;7953;54.302;10.128;2022-07-03T06:44:14;20.10;99.90
15707;DHT22;7953;54.302;10.128;2022-07-03T06:46:41;20.20;99.90
15707;DHT22;7953;54.302;10.128;2022-07-03T06:49:08;20.40;99.90
15707;DHT22;7953;54.302;10.128;2022-07-03T06:51:35;20.50;99.90
15707;DHT22;7953;54.302;10.128;2022-07-03T06:54:02;20.70;99.90
15707;DHT22;7953;54.302;10.128;2022-07-03T06:56:29;20.80;99.90
15707;DHT22;7953;54.302;10.128;2022-07-03T06:58:57;21.00;99.90
15707;DHT22;7953;54.302;10.128;2022-07-03T07:01:24;21.10;99.90
15707;DHT22;7953;54.302;10.128;2022-07-03T07:03:51;21.20;99.90
15707;DHT22;7953;54.302;10.128;2022-07-03T07:06:18;21.30;99.90
15707;DHT22;7953;54.302;10.128;2022-07-03T07:08:45;21.50;99.90
15707;DHT22;7953;54.302;10.128;2022-07-03T07:11:12;21.60;99.90
15707;DHT22;7953;54.302;10.128;2022-07-03T07:13:39;21.80;99.90
15707;DHT22;7953;54.302;10.128;2022-07-03T07:16:07;21.90;99.90
15707;DHT22;7953;54.302;10.128;2022-07-03T07:18:34;22.00;99.90
15707;DHT22;7953;54.302;10.128;2022-07-03T07:21:01;22.10;99.90
15707;DHT22;7953;54.302;10.128;2022-07-03T07:23:28;22.20;99.90
15707;DHT22;7953;54.302;10.128;2022-07-03T07:25:55;22.40;99.90
15707;DHT22;7953;54.302;10.128;2022-07-03T07:28:22;22.60;99.90
15707;DHT22;7953;54.302;10.128;2022-07-03T07:30:49;22.80;99.90
15707;DHT22;7953;54.302;10.128;2022-07-03T07:33:21;22.90;99.90
15707;DHT22;7953;54.302;10.128;2022-07-03T07:35:48;23.10;99.90
15707;DHT22;7953;54.302;10.128;2022-07-03T07:38:15;23.10;99.90
15707;DHT22;7953;54.302;10.128;2022-07-03T07:40:42;23.20;99.90
15707;DHT22;7953;54.302;10.128;2022-07-03T07:43:09;23.40;99.90
15707;DHT22;7953;54.302;10.128;2022-07-03T07:45:36;23.60;99.90
15707;DHT22;7953;54.302;10.128;2022-07-03T07:48:04;23.70;99.90
15707;DHT22;7953;54.302;10.128;2022-07-03T07:50:32;23.90;99.90
15707;DHT22;7953;54.302;10.128;2022-07-03T07:52:59;24.00;99.90
15707;DHT22;7953;54.302;10.128;2022-07-03T07:55:26;24.10;99.90
15707;DHT22;7953;54.302;10.128;2022-07-03T07:57:53;24.20;99.90
15707;DHT22;7953;54.302;10.128;2022-07-03T08:00:20;24.50;99.90
15707;DHT22;7953;54.302;10.128;2022-07-03T08:02:47;24.60;99.90
15707;DHT22;7953;54.302;10.128;2022-07-03T08:05:34;24.80;99.90
15707;DHT22;7953;54.302;10.128;2022-07-03T08:08:08;24.90;99.90
15707;DHT22;7953;54.302;10.128;2022-07-03T08:10:36;25.10;99.90
15707;DHT22;7953;54.302;10.128;2022-07-03T08:13:03;25.30;99.90
15707;DHT22;7953;54.302;10.128;2022-07-03T08:15:30;25.30;99.90
15707;DHT22;7953;54.302;10.128;2022-07-03T08:17:57;25.20;99.90
15707;DHT22;7953;54.302;10.128;2022-07-03T08:20:25;25.20;99.90
15707;DHT22;7953;54.302;10.128;2022-07-03T08:22:53;25.10;99.90
15707;DHT22;7953;54.302;10.128;2022-07-03T08:25:20;25.10;99.90
15707;DHT22;7953;54.302;10.128;2022-07-03T08:27:48;25.20;99.90
15707;DHT22;7953;54.302;10.128;2022-07-03T08:30:15;25.30;99.90
15707;DHT22;7953;54.302;10.128;2022-07-03T08:32:43;25.20;99.90
15707;DHT22;7953;54.302;10.128;2022-07-03T08:35:11;25.20;99.90
15707;DHT22;7953;54.302;10.128;2022-07-03T08:37:39;25.10;99.90
15707;DHT22;7953;54.302;10.128;2022-07-03T08:40:11;25.00;99.90
15707;DHT22;7953;54.302;10.128;2022-07-03T08:42:41;24.90;99.90
15707;DHT22;7953;54.302;10.128;2022-07-03T08:45:13;24.90;99.90
15707;DHT22;7953;54.302;10.128;2022-07-03T08:47:40;25.00;99.90
15707;DHT22;7953;54.302;10.128;2022-07-03T08:50:08;25.20;99.90
15707;DHT22;7953;54.302;10.128;2022-07-03T08:52:36;25.60;99.90
15707;DHT22;7953;54.302;10.128;2022-07-03T08:55:04;26.00;99.90
15707;DHT22;7953;54.302;10.128;2022-07-03T08:57:32;26.40;99.90
15707;DHT22;7953;54.302;10.128;2022-07-03T09:00:02;26.80;99.90
15707;DHT22;7953;54.302;10.128;2022-07-03T09:02:30;27.10;99.90
15707;DHT22;7953;54.302;10.128;2022-07-03T09:04:58;27.60;99.90
15707;DHT22;7953;54.302;10.128;2022-07-03T09:07:26;28.00;99.90
15707;DHT22;7953;54.302;10.128;2022-07-03T09:09:53;27.90;99.90
15707;DHT22;7953;54.302;10.128;2022-07-03T09:12:21;27.50;99.90
15707;DHT22;7953;54.302;10.128;2022-07-03T09:14:50;27.20;99.90
15707;DHT22;7953;54.302;10.128;2022-07-03T09:17:17;26.80;99.90
15707;DHT22;7953;54.302;10.128;2022-07-03T09:19:46;26.50;99.90
15707;DHT22;7953;54.302;10.128;2022-07-03T09:22:21;26.30;99.90
15707;DHT22;7953;54.302;10.128;2022-07-03T09:24:48;26.40;99.90
15707;DHT22;7953;54.302;10.128;2022-07-03T09:27:20;26.50;99.90
15707;DHT22;7953;54.302;10.128;2022-07-03T09:29:57;26.40;99.90
15707;DHT22;7953;54.302;10.128;2022-07-03T09:32:25;26.30;99.90
15707;DHT22;7953;54.302;10.128;2022-07-03T09:35:17;26.20;99.90
15707;DHT22;7953;54.302;10.128;2022-07-03T09:37:49;26.10;99.90
15707;DHT22;7953;54.302;10.128;2022-07-03T09:40:16;26.30;99.90
15707;DHT22;7953;54.302;10.128;2022-07-03T09:42:57;26.50;99.90
15707;DHT22;7953;54.302;10.128;2022-07-03T09:45:26;26.70;99.90
15707;DHT22;7953;54.302;10.128;2022-07-03T09:47:53;26.90;99.90
15707;DHT22;7953;54.302;10.128;2022-07-03T09:50:20;27.10;99.90
15707;DHT22;7953;54.302;10.128;2022-07-03T09:52:47;27.10;99.90
